Time;durP1;ratioP1;P1;durP2;ratioP2;P2;SDS_P1;SDS_P2;PMS_P1;PMS_P2;Temp;Humidity;BMP_temperature;BMP_pressure;BME280_temperature;BME280_humidity;BME280_pressure;Samples;Min_cycle;Max_cycle;Signal;HPM_P1;HPM_P2
2022/12/19 00:01:59;;;;;;;27.60;11.80;;;;;;;-3.96;76.08;103570.05;105489;1270;59494;-72
2022/12/19 00:04:28;;;;;;;19.40;9.30;;;;;;;-3.85;75.64;103563.77;105552;1272;71049;-71
2022/12/19 00:06:57;;;;;;;21.70;9.90;;;;;;;-3.84;76.10;103559.05;105587;1262;69700;-70
2022/12/19 00:09:26;;;;;;;27.40;12.00;;;;;;;-3.81;75.97;103568.34;105552;1274;67943;-71
2022/12/19 00:11:55;;;;;;;28.50;12.00;;;;;;;-3.81;76.10;103562.71;105573;1270;71880;-71
2022/12/19 00:14:24;;;;;;;20.30;10.40;;;;;;;-3.80;75.92;103562.95;105650;1261;59063;-71
2022/12/19 00:16:53;;;;;;;25.60;10.80;;;;;;;-3.79;75.88;103567.40;105689;1268;58775;-72
2022/12/19 00:19:22;;;;;;;25.80;11.00;;;;;;;-3.85;76.31;103569.92;105572;1263;71727;-73
2022/12/19 00:21:51;;;;;;;22.10;9.80;;;;;;;-3.82;76.31;103569.69;105647;1264;69757;-73
2022/12/19 00:24:20;;;;;;;21.50;10.10;;;;;;;-3.70;76.24;103575.17;105654;1263;68334;-72
2022/12/19 00:26:49;;;;;;;19.30;8.60;;;;;;;-3.73;74.75;103587.86;105618;1263;71774;-71
2022/12/19 00:29:18;;;;;;;18.30;9.30;;;;;;;-3.76;73.69;103583.84;105581;1263;59359;-71
2022/12/19 00:31:47;;;;;;;20.10;8.60;;;;;;;-3.81;73.12;103579.06;105462;1273;58755;-75
2022/12/19 00:34:16;;;;;;;22.20;9.60;;;;;;;-3.83;72.67;103572.88;105487;1266;70713;-72
2022/12/19 00:36:45;;;;;;;18.00;8.40;;;;;;;-3.90;72.54;103577.40;105367;1267;69687;-70
2022/12/19 00:39:14;;;;;;;21.40;10.00;;;;;;;-3.91;72.47;103587.92;105570;1272;70109;-69
2022/12/19 00:41:42;;;;;;;20.30;8.40;;;;;;;-3.92;73.07;103585.17;105418;1267;73823;-70
2022/12/19 00:44:13;;;;;;;15.80;8.50;;;;;;;-3.87;73.24;103582.60;105429;1265;60299;-69
2022/12/19 00:46:42;;;;;;;21.30;9.90;;;;;;;-3.88;72.82;103581.23;105461;1260;59845;-69
2022/12/19 00:49:20;;;;;;;20.30;10.20;;;;;;;-3.92;72.94;103580.44;105489;1264;73018;-71
2022/12/19 00:51:49;;;;;;;18.80;10.00;;;;;;;-3.92;72.74;103583.65;105541;1267;70376;-73
2022/12/19 00:54:18;;;;;;;21.50;9.00;;;;;;;-3.95;73.30;103576.21;105592;1275;69169;-70
2022/12/19 00:56:48;;;;;;;17.70;8.00;;;;;;;-3.95;73.19;103586.42;105485;1261;74535;-72
2022/12/19 00:59:16;;;;;;;17.80;8.00;;;;;;;-3.93;73.66;103583.27;105533;1268;62678;-71
2022/12/19 01:01:57;;;;;;;20.40;8.60;;;;;;;-3.84;73.67;103577.42;105570;1269;60757;-74
2022/12/19 01:04:26;;;;;;;23.00;10.00;;;;;;;-3.82;72.95;103582.10;105520;1265;71251;-72
2022/12/19 01:06:57;;;;;;;23.30;10.60;;;;;;;-3.86;72.86;103589.63;105611;1263;71661;-71
2022/12/19 01:09:35;;;;;;;17.10;8.40;;;;;;;-3.90;72.80;103586.92;105525;1270;67832;-72
2022/12/19 01:14:55;;;;;;;22.80;10.50;;;;;;;-3.93;73.07;103590.25;105627;1264;60245;-72
2022/12/19 01:17:33;;;;;;;23.00;10.10;;;;;;;-3.94;74.28;103586.46;105515;1275;62207;-71
2022/12/19 01:20:16;;;;;;;24.40;11.40;;;;;;;-3.88;74.66;103585.82;105514;1275;72757;-70
2022/12/19 01:22:58;;;;;;;23.60;9.90;;;;;;;-3.77;74.24;103589.95;105596;1264;71552;-74
2022/12/19 01:25:28;;;;;;;15.70;7.30;;;;;;;-3.77;73.65;103585.35;105560;1274;69451;-71
2022/12/19 01:27:57;;;;;;;19.60;8.70;;;;;;;-3.83;73.13;103579.16;105410;1267;72821;-70
2022/12/19 01:30:27;;;;;;;24.20;10.90;;;;;;;-3.88;72.86;103583.10;105527;1263;59178;-70
2022/12/19 01:32:57;;;;;;;22.60;10.60;;;;;;;-3.94;73.25;103573.19;105577;1263;60971;-69
2022/12/19 01:35:27;;;;;;;21.80;9.10;;;;;;;-3.93;73.42;103571.85;105654;1267;70690;-70
2022/12/19 01:37:56;;;;;;;17.40;9.60;;;;;;;-3.96;73.14;103568.88;105647;1264;70007;-70
2022/12/19 01:40:36;;;;;;;17.60;7.70;;;;;;;-3.92;72.73;103570.54;105599;1272;67685;-71
2022/12/19 01:43:12;;;;;;;21.30;9.50;;;;;;;-3.94;72.27;103576.41;105576;1267;73515;-70
2022/12/19 01:45:42;;;;;;;21.30;10.10;;;;;;;-4.02;72.04;103571.23;105450;1267;59451;-70
2022/12/19 01:48:21;;;;;;;22.20;9.80;;;;;;;-4.04;71.97;103564.38;105577;1269;60064;-71
2022/12/19 01:50:58;;;;;;;21.60;10.10;;;;;;;-4.13;72.52;103563.89;105572;1270;70489;-71
2022/12/19 01:53:58;;;;;;;20.30;11.00;;;;;;;-4.15;72.86;103573.35;105628;1268;69468;-72
2022/12/19 01:56:33;;;;;;;21.50;10.60;;;;;;;-4.26;73.30;103576.17;105543;1266;69180;-73
2022/12/19 01:59:09;;;;;;;18.10;8.70;;;;;;;-4.24;73.53;103577.29;105442;1265;72052;-71
2022/12/19 02:01:40;;;;;;;22.80;9.30;;;;;;;-4.23;73.13;103576.81;105559;1272;59026;-72
2022/12/19 02:04:26;;;;;;;18.30;8.10;;;;;;;-4.26;73.03;103577.57;105622;1267;60696;-70
2022/12/19 02:07:04;;;;;;;21.00;10.60;;;;;;;-4.28;72.90;103579.87;105633;1267;71372;-72
2022/12/19 02:09:46;;;;;;;15.70;8.30;;;;;;;-4.31;73.46;103578.06;105613;1260;72370;-72
2022/12/19 02:12:27;;;;;;;25.20;11.20;;;;;;;-4.29;74.24;103574.57;105601;1272;70268;-70
2022/12/19 02:14:59;;;;;;;21.80;10.00;;;;;;;-4.25;74.08;103576.05;105580;1264;73990;-71
2022/12/19 02:18:12;;;;;;;25.30;11.20;;;;;;;-4.27;73.88;103574.46;105499;1267;60396;-72
2022/12/19 02:21:05;;;;;;;25.00;11.20;;;;;;;-4.36;74.27;103569.20;105572;1261;60800;-69
2022/12/19 02:24:11;;;;;;;24.10;11.80;;;;;;;-4.40;74.57;103574.00;105574;1262;72084;-68
2022/12/19 02:26:59;;;;;;;21.60;10.50;;;;;;;-4.39;74.92;103576.58;105452;1274;70892;-69
2022/12/19 02:29:55;;;;;;;28.10;12.00;;;;;;;-4.37;75.23;103572.90;105550;1260;69005;-69
2022/12/19 02:33:01;;;;;;;25.80;12.30;;;;;;;-4.33;76.02;103568.80;105558;1264;74049;-71
2022/12/19 02:35:45;;;;;;;26.00;11.70;;;;;;;-4.35;75.81;103571.98;105573;1264;59086;-75
2022/12/19 02:38:17;;;;;;;;;;;;;;;-4.37;75.58;103573.61;105653;1261;61093;-74
2022/12/19 02:40:57;;;;;;;24.90;11.60;;;;;;;-4.43;75.74;103580.02;105674;1264;71742;-74
2022/12/19 02:43:31;;;;;;;23.10;11.00;;;;;;;-4.49;76.08;103581.34;105495;1267;70418;-74
2022/12/19 02:46:05;;;;;;;14.30;7.10;;;;;;;-4.54;76.40;103585.59;105457;1270;69303;-71
2022/12/19 02:48:35;;;;;;;28.00;12.70;;;;;;;-4.56;76.88;103584.15;105516;1264;74158;-71
2022/12/19 02:51:05;;;;;;;28.70;12.70;;;;;;;-4.59;77.16;103583.55;105539;1268;59355;-73
2022/12/19 02:53:36;;;;;;;30.90;12.50;;;;;;;-4.64;77.15;103582.16;105540;1260;60840;-72
2022/12/19 02:56:21;;;;;;;20.70;10.60;;;;;;;-4.71;76.82;103590.39;105522;1256;73550;-73
2022/12/19 02:59:25;;;;;;;23.40;10.30;;;;;;;-4.78;76.66;103600.35;105743;1258;69967;-73
2022/12/19 03:02:20;;;;;;;28.20;11.30;;;;;;;-4.83;76.83;103601.71;105625;1263;68347;-75
2022/12/19 03:05:02;;;;;;;21.60;10.30;;;;;;;-4.84;77.57;103592.16;105574;1270;71521;-74
2022/12/19 03:08:09;;;;;;;22.70;9.90;;;;;;;-4.76;77.61;103591.39;107773;1258;63281;-72
2022/12/19 03:11:06;;;;;;;25.70;10.20;;;;;;;-4.77;77.39;103596.48;107448;1265;60639;-75
2022/12/19 03:13:48;;;;;;;25.20;12.10;;;;;;;-4.81;77.39;103593.08;107708;1260;71578;-72
2022/12/19 03:16:17;;;;;;;18.90;8.50;;;;;;;-4.89;77.39;103593.98;107766;1261;69548;-74
2022/12/19 03:18:46;;;;;;;26.50;11.30;;;;;;;-4.92;77.87;103590.81;107733;1261;70381;-74
2022/12/19 03:21:24;;;;;;;23.30;10.80;;;;;;;-4.94;78.14;103590.90;107783;1257;74320;-73
2022/12/19 03:23:55;;;;;;;25.40;12.00;;;;;;;-4.98;78.79;103586.86;107788;1263;63136;-74
2022/12/19 03:26:30;;;;;;;26.00;11.40;;;;;;;-5.00;79.16;103594.95;107613;1262;58884;-75
2022/12/19 03:29:44;;;;;;;24.10;11.20;;;;;;;-5.02;79.01;103593.32;107645;1263;73875;-75
2022/12/19 03:32:15;;;;;;;23.90;10.80;;;;;;;-5.14;78.73;103595.27;107469;1268;69390;-76
2022/12/19 03:35:04;;;;;;;24.00;10.10;;;;;;;-5.20;78.79;103600.80;107339;1269;70020;-72
2022/12/19 03:37:38;;;;;;;17.80;7.90;;;;;;;-5.26;79.08;103604.64;107782;1255;72983;-72
2022/12/19 03:40:14;;;;;;;24.70;11.30;;;;;;;-5.24;79.25;103608.30;107714;1272;61900;-72
2022/12/19 03:45:43;;;;;;;27.50;11.90;;;;;;;-5.26;79.09;103612.95;107762;1264;72775;-70
2022/12/19 03:48:37;;;;;;;26.90;11.30;;;;;;;-5.30;79.29;103620.63;107838;1270;70255;-74
2022/12/19 03:51:34;;;;;;;29.60;12.60;;;;;;;-5.25;78.99;103618.27;107764;1260;70574;-73
2022/12/19 03:54:17;;;;;;;22.10;8.00;;;;;;;-5.25;79.43;103620.64;107740;1263;71338;-73
2022/12/19 03:56:52;;;;;;;26.60;11.80;;;;;;;-5.24;79.44;103626.80;107813;1255;63028;-74
2022/12/19 03:59:38;;;;;;;18.60;8.20;;;;;;;-5.20;79.71;103626.79;107788;1257;60649;-71
2022/12/19 04:02:08;;;;;;;21.00;10.40;;;;;;;-5.25;79.80;103632.36;107740;1270;71153;-69
2022/12/19 04:04:43;;;;;;;25.90;10.60;;;;;;;-5.30;79.70;103637.45;107839;1258;70851;-71
2022/12/19 04:07:14;;;;;;;25.40;10.70;;;;;;;-5.36;79.52;103639.93;107750;1264;69791;-69
2022/12/19 04:09:45;;;;;;;20.00;8.90;;;;;;;-5.43;80.08;103647.96;107722;1270;72446;-69
2022/12/19 04:12:19;;;;;;;26.90;12.40;;;;;;;-5.43;81.82;103647.30;107605;1264;62912;-69
2022/12/19 04:14:49;;;;;;;23.00;9.00;;;;;;;-5.39;81.06;103647.46;107656;1266;60667;-70
2022/12/19 04:17:48;;;;;;;26.30;11.50;;;;;;;-5.41;80.31;103648.38;107746;1269;72538;-73
2022/12/19 04:20:24;;;;;;;22.00;11.00;;;;;;;-5.53;79.93;103647.52;107920;1255;71367;-72
2022/12/19 04:23:00;;;;;;;24.00;9.70;;;;;;;-5.61;79.92;103650.46;107617;1263;68081;-73
2022/12/19 04:25:41;;;;;;;28.30;12.00;;;;;;;-5.67;80.10;103652.06;107643;1264;70232;-72
2022/12/19 04:28:24;;;;;;;31.20;12.40;;;;;;;-5.72;80.86;103652.53;107862;1254;62342;-71
2022/12/19 04:30:53;;;;;;;28.40;13.20;;;;;;;-5.66;81.55;103656.69;107749;1267;58949;-73
2022/12/19 04:33:22;;;;;;;26.70;13.30;;;;;;;-5.68;81.43;103653.23;107733;1260;70745;-72
2022/12/19 04:35:51;;;;;;;24.20;11.90;;;;;;;-5.74;81.15;103652.63;107743;1261;69655;-73
2022/12/19 04:38:20;;;;;;;27.30;13.30;;;;;;;-5.80;81.26;103648.13;107688;1260;69869;-74
2022/12/19 04:40:48;;;;;;;30.90;11.80;;;;;;;-5.88;81.30;103656.62;107759;1266;73507;-73
2022/12/19 04:43:17;;;;;;;29.80;12.40;;;;;;;-5.92;81.18;103667.33;107761;1264;61059;-73
2022/12/19 04:45:46;;;;;;;33.30;14.30;;;;;;;-5.95;82.47;103671.80;107789;1263;60293;-74
2022/12/19 04:48:16;;;;;;;34.60;14.90;;;;;;;-5.88;84.42;103672.07;107763;1263;71185;-72
2022/12/19 04:50:45;;;;;;;34.30;14.50;;;;;;;-5.87;83.37;103670.42;107875;1255;72917;-74
2022/12/19 04:53:13;;;;;;;38.30;17.50;;;;;;;-5.90;82.43;103667.92;107756;1270;70666;-73
2022/12/19 04:55:43;;;;;;;35.90;15.40;;;;;;;-5.98;81.92;103678.13;107770;1262;72316;-73
2022/12/19 04:58:12;;;;;;;33.40;14.60;;;;;;;-6.07;81.75;103684.69;107856;1260;58799;-76
2022/12/19 05:00:47;;;;;;;24.80;11.80;;;;;;;-6.13;82.94;103685.09;107754;1264;59464;-72
2022/12/19 05:03:16;;;;;;;35.50;13.10;;;;;;;-6.16;82.27;103680.23;108007;1260;70767;-74
2022/12/19 05:05:45;;;;;;;32.90;13.00;;;;;;;-6.16;82.84;103686.85;108115;1254;70641;-72
2022/12/19 05:08:13;;;;;;;20.80;8.50;;;;;;;-6.16;83.83;103691.11;107791;1263;69667;-73
2022/12/19 05:10:42;;;;;;;37.70;16.20;;;;;;;-6.13;83.94;103685.59;107788;1264;70189;-73
2022/12/19 05:13:11;;;;;;;34.20;16.30;;;;;;;-6.10;87.00;103684.69;107828;1259;60384;-72
2022/12/19 05:15:40;;;;;;;34.00;13.80;;;;;;;-5.99;88.85;103700.30;107831;1260;60218;-72
2022/12/19 05:18:09;;;;;;;28.80;13.10;;;;;;;-6.09;85.30;103703.91;107789;1263;71601;-71
2022/12/19 05:20:37;;;;;;;30.40;13.60;;;;;;;-6.13;84.01;103709.69;107890;1261;71293;-72
2022/12/19 05:23:06;;;;;;;32.10;15.10;;;;;;;-6.18;85.20;103710.31;107775;1263;69527;-74
2022/12/19 05:25:44;;;;;;;36.50;16.20;;;;;;;-6.16;85.89;103703.45;107827;1267;71848;-75
2022/12/19 05:28:13;;;;;;;35.50;16.40;;;;;;;-6.19;84.84;103697.91;107581;1264;60484;-72
2022/12/19 05:30:42;;;;;;;39.80;16.30;;;;;;;-6.26;83.98;103702.67;107592;1263;59996;-71
2022/12/19 05:33:19;;;;;;;34.90;15.30;;;;;;;-6.33;85.24;103705.89;107596;1266;71813;-70
2022/12/19 05:35:48;;;;;;;40.00;16.90;;;;;;;-6.38;84.23;103711.29;107746;1258;71405;-74
2022/12/19 05:38:16;;;;;;;30.40;13.90;;;;;;;-6.39;85.48;103715.33;107590;1260;70648;-73
2022/12/19 05:40:45;;;;;;;39.10;15.90;;;;;;;-6.40;84.99;103712.71;107711;1260;71459;-73
2022/12/19 05:43:14;;;;;;;38.50;16.40;;;;;;;-6.41;85.15;103723.05;107686;1267;60299;-73
2022/12/19 05:45:42;;;;;;;32.50;14.80;;;;;;;-6.43;85.36;103718.85;107699;1263;61247;-75
2022/12/19 05:48:12;;;;;;;34.00;15.80;;;;;;;-6.30;88.04;103711.64;107610;1259;71257;-78
2022/12/19 05:50:41;;;;;;;30.40;14.70;;;;;;;-6.28;87.58;103710.05;107705;1263;72061;-77
2022/12/19 05:53:10;;;;;;;29.80;13.30;;;;;;;-6.22;87.51;103723.05;107551;1270;69257;-74
2022/12/19 05:55:39;;;;;;;39.50;18.30;;;;;;;-6.15;87.63;103731.86;107640;1260;73146;-77
2022/12/19 05:58:08;;;;;;;34.10;14.10;;;;;;;-5.91;88.10;103734.76;107774;1260;57945;-72
2022/12/19 06:00:37;;;;;;;31.40;14.40;;;;;;;-6.00;87.12;103735.71;107775;1259;60466;-75
2022/12/19 06:03:05;;;;;;;26.00;10.40;;;;;;;-6.03;86.16;103741.88;107763;1263;73404;-74
2022/12/19 06:05:37;;;;;;;28.60;13.10;;;;;;;-6.06;84.87;103743.93;107907;1251;71784;-75
2022/12/19 06:08:06;;;;;;;29.30;13.90;;;;;;;-6.10;84.64;103748.52;107763;1270;68426;-77
2022/12/19 06:10:35;;;;;;;30.70;13.10;;;;;;;-6.12;84.57;103742.99;107825;1260;71919;-72
2022/12/19 06:13:04;;;;;;;30.10;14.40;;;;;;;-6.12;84.61;103742.84;107769;1266;58449;-72
2022/12/19 06:15:32;;;;;;;34.70;14.60;;;;;;;-6.12;85.01;103752.84;107838;1264;60761;-76
2022/12/19 06:18:01;;;;;;;37.40;15.20;;;;;;;-6.13;84.84;103759.94;107769;1270;71445;-71
2022/12/19 06:20:30;;;;;;;32.70;13.90;;;;;;;-5.99;87.52;103755.62;107898;1260;70200;-72
2022/12/19 06:22:59;;;;;;;33.50;14.40;;;;;;;-6.02;85.04;103763.29;107686;1260;70380;-73
2022/12/19 06:25:27;;;;;;;31.90;14.90;;;;;;;-5.97;86.01;103764.18;107599;1263;74109;-74
2022/12/19 06:27:56;;;;;;;32.70;13.30;;;;;;;-5.87;86.87;103764.83;107804;1269;59927;-73
2022/12/19 06:30:25;;;;;;;32.20;14.90;;;;;;;-5.87;84.83;103771.57;107628;1263;60371;-71
2022/12/19 06:32:53;;;;;;;40.10;16.00;;;;;;;-5.80;85.65;103772.36;107772;1266;72909;-70
2022/12/19 06:35:22;;;;;;;38.40;15.00;;;;;;;-5.77;85.54;103765.74;107960;1255;72810;-72
2022/12/19 06:37:51;;;;;;;33.20;14.90;;;;;;;-5.78;84.43;103763.82;107799;1264;69437;-72
2022/12/19 06:43:15;;;;;;;38.90;17.00;;;;;;;-5.69;85.58;103773.73;107822;1264;60962;-72
2022/12/19 06:45:44;;;;;;;35.90;16.00;;;;;;;-5.62;85.74;103775.70;107830;1259;60889;-72
2022/12/19 06:48:12;;;;;;;35.90;17.00;;;;;;;-5.54;86.13;103780.66;107707;1263;74220;-74
2022/12/19 06:50:41;;;;;;;37.50;15.90;;;;;;;-5.53;85.49;103783.08;107852;1258;70666;-71
2022/12/19 06:53:10;;;;;;;25.70;10.30;;;;;;;-5.51;83.63;103789.44;107821;1259;69632;-73
2022/12/19 06:55:39;;;;;;;21.90;11.60;;;;;;;-5.67;82.92;103789.62;107784;1260;74090;-74
2022/12/19 06:58:07;;;;;;;27.50;11.80;;;;;;;-5.69;82.83;103785.94;107822;1260;62372;-71
2022/12/19 07:00:36;;;;;;;27.00;12.80;;;;;;;-5.76;83.25;103790.55;107828;1260;59541;-83
2022/12/19 07:03:09;;;;;;;32.50;15.50;;;;;;;-5.85;83.51;103792.19;107921;1270;70186;-87
2022/12/19 07:05:39;;;;;;;39.90;16.20;;;;;;;-5.81;85.72;103790.36;107839;1270;72013;-84
2022/12/19 07:08:08;;;;;;;39.00;15.10;;;;;;;-5.77;84.18;103792.73;107809;1267;70178;-85
2022/12/19 07:13:03;;;;;;;35.70;17.50;;;;;;;-5.59;84.51;103791.61;103105;1295;600783;-87
2022/12/19 07:15:34;;;;;;;36.20;15.40;;;;;;;-5.49;85.99;103798.02;105475;1273;60312;-89
2022/12/19 07:18:07;;;;;;;32.40;12.60;;;;;;;-5.41;83.52;103799.55;105580;1273;61268;-86
2022/12/19 07:20:40;;;;;;;43.80;17.60;;;;;;;-5.39;82.25;103788.60;105458;1277;71645;-89
2022/12/19 07:23:17;;;;;;;24.70;10.80;;;;;;;-5.36;82.13;103785.52;105455;1264;71310;-86
2022/12/19 07:25:46;;;;;;;36.90;16.50;;;;;;;-5.29;82.76;103793.12;104379;1270;1497168;-85
2022/12/19 07:28:16;;;;;;;31.90;14.40;;;;;;;-5.26;81.97;103800.89;105576;1264;70999;-85
2022/12/19 07:30:44;;;;;;;39.70;13.10;;;;;;;-5.22;81.19;103814.64;105790;1267;60096;-87
2022/12/19 07:33:13;;;;;;;26.40;12.00;;;;;;;-5.23;80.39;103819.04;106032;1274;60166;-86
2022/12/19 07:35:48;;;;;;;34.40;14.10;;;;;;;-5.23;79.80;103825.31;105712;1270;70884;-87
2022/12/19 07:38:17;;;;;;;33.40;15.90;;;;;;;-5.10;81.46;103831.63;105574;1272;72720;-85
2022/12/19 07:40:46;;;;;;;32.20;13.60;;;;;;;-5.02;80.42;103824.13;105512;1261;68361;-86
2022/12/19 07:43:15;;;;;;;33.30;14.70;;;;;;;-4.95;80.28;103825.11;105537;1263;71367;-86
2022/12/19 07:45:44;;;;;;;36.00;15.30;;;;;;;-4.92;80.15;103828.31;105564;1266;59549;-89
2022/12/19 07:48:13;;;;;;;36.40;15.40;;;;;;;-4.90;79.57;103821.92;105480;1269;59486;-86
2022/12/19 07:50:42;;;;;;;30.80;14.00;;;;;;;-4.93;78.54;103815.71;105658;1275;70211;-86
2022/12/19 07:53:11;;;;;;;36.30;15.60;;;;;;;-4.95;78.45;103815.95;105742;1270;69572;-87
2022/12/19 07:55:40;;;;;;;36.60;17.40;;;;;;;-4.95;78.62;103824.77;105547;1267;69196;-87
2022/12/19 07:58:09;;;;;;;34.90;15.40;;;;;;;-4.81;80.72;103828.74;105597;1270;71782;-87
2022/12/19 08:00:38;;;;;;;37.80;16.20;;;;;;;-4.67;79.35;103834.95;105628;1267;62418;-87
2022/12/19 08:03:07;;;;;;;30.40;13.10;;;;;;;-4.61;78.85;103838.09;105647;1267;59116;-89
2022/12/19 08:05:36;;;;;;;42.50;17.00;;;;;;;-4.61;78.16;103830.74;105676;1262;72411;-88
2022/12/19 08:08:05;;;;;;;33.90;16.30;;;;;;;-4.64;77.25;103832.69;105764;1270;70503;-87
2022/12/19 08:10:34;;;;;;;35.60;15.80;;;;;;;-4.70;76.85;103832.45;105588;1270;68117;-88
2022/12/19 08:13:03;;;;;;;34.20;17.30;;;;;;;-4.59;78.61;103836.29;105547;1267;71677;-86
2022/12/19 08:15:32;;;;;;;39.80;16.20;;;;;;;-4.54;77.76;103839.54;105591;1265;62939;-84
2022/12/19 08:18:02;;;;;;;37.70;15.60;;;;;;;-4.49;77.90;103828.17;105567;1266;61421;-85
2022/12/19 08:20:31;;;;;;;35.00;15.90;;;;;;;-4.34;77.45;103833.36;105707;1274;70402;-86
2022/12/19 08:23:00;;;;;;;39.20;15.10;;;;;;;-4.28;77.31;103838.69;105576;1263;71380;-88
2022/12/19 08:25:29;;;;;;;35.40;16.80;;;;;;;-4.19;77.16;103843.98;105660;1271;70119;-85
2022/12/19 08:27:57;;;;;;;32.60;15.10;;;;;;;-4.31;75.57;103844.38;105527;1264;73666;-88
2022/12/19 08:30:26;;;;;;;35.60;15.90;;;;;;;-4.37;76.31;103835.11;105634;1267;61062;-86
2022/12/19 08:32:55;;;;;;;36.40;15.60;;;;;;;-4.31;75.79;103835.00;105594;1271;60970;-85
2022/12/19 08:35:24;;;;;;;42.80;18.00;;;;;;;-4.34;75.67;103829.64;105598;1263;70392;-80
2022/12/19 08:37:53;;;;;;;35.00;16.30;;;;;;;-4.26;76.38;103837.44;105454;1268;72032;-86
2022/12/19 08:40:22;;;;;;;43.40;17.80;;;;;;;-4.19;76.34;103843.83;105459;1270;70130;-88
2022/12/19 08:42:51;;;;;;;35.60;15.10;;;;;;;-4.12;75.60;103838.98;105270;1274;71493;-86
2022/12/19 08:45:20;;;;;;;29.80;14.30;;;;;;;-4.10;75.15;103836.52;105341;1266;61103;-88
2022/12/19 08:47:48;;;;;;;31.60;15.20;;;;;;;-4.03;75.48;103835.78;105352;1275;61957;-88
2022/12/19 08:50:17;;;;;;;35.90;16.20;;;;;;;-4.09;75.17;103831.08;105401;1263;72683;-88
2022/12/19 08:52:46;;;;;;;35.70;15.70;;;;;;;-4.10;75.25;103827.34;105523;1263;70672;-86
2022/12/19 08:55:15;;;;;;;34.20;16.30;;;;;;;-4.13;75.00;103822.25;105381;1266;69840;-86
2022/12/19 08:57:45;;;;;;;41.60;18.10;;;;;;;-4.07;75.17;103818.25;105253;1271;71572;-87
2022/12/19 09:00:15;;;;;;;34.60;15.50;;;;;;;-4.04;74.75;103818.16;105440;1270;60074;-87
2022/12/19 09:02:45;;;;;;;33.50;14.60;;;;;;;-3.91;74.75;103820.37;105467;1267;59318;-84
2022/12/19 09:05:16;;;;;;;29.70;13.40;;;;;;;-3.78;75.26;103825.42;105341;1267;73523;-86
2022/12/19 09:08:05;;;;;;;38.70;15.20;;;;;;;-3.73;74.31;103814.22;105366;1268;72726;-86
2022/12/19 09:10:38;;;;;;;28.30;14.20;;;;;;;-3.76;73.80;103812.74;105345;1264;70285;-87
2022/12/19 09:13:07;;;;;;;35.40;15.30;;;;;;;-3.90;73.38;103817.52;106397;1263;74007;-84
2022/12/19 09:15:36;;;;;;;35.40;16.30;;;;;;;-3.83;73.65;103814.16;106576;1266;59038;-85
2022/12/19 09:18:06;;;;;;;35.70;16.90;;;;;;;-3.85;73.56;103808.67;105822;1264;60468;-89
2022/12/19 09:20:34;;;;;;;35.80;15.00;;;;;;;-3.79;73.67;103805.99;105434;1267;73273;-83
2022/12/19 09:23:03;;;;;;;28.80;14.50;;;;;;;-3.68;73.20;103809.64;105291;1264;71710;-84
2022/12/19 09:25:32;;;;;;;35.10;16.30;;;;;;;-3.67;73.05;103809.48;105560;1274;68799;-86
2022/12/19 09:28:02;;;;;;;35.70;17.30;;;;;;;-3.68;73.70;103805.04;105335;1275;72568;-84
2022/12/19 09:30:56;;;;;;;31.50;14.30;;;;;;;-3.65;72.99;103799.84;105427;1274;61202;-89
2022/12/19 09:33:26;;;;;;;38.00;15.30;;;;;;;-3.51;73.46;103798.48;105538;1275;59103;-90
2022/12/19 09:47:22;;;;;;;37.90;16.60;;;;;;;-3.10;73.57;103771.77;102704;1297;600807;-89
2022/12/19 09:49:53;;;;;;;44.40;18.40;;;;;;;-3.12;71.40;103776.80;105377;1269;58965;-87
2022/12/19 09:52:39;;;;;;;38.60;16.70;;;;;;;-3.09;71.58;103773.64;105253;1273;60322;-86
2022/12/19 09:55:31;;;;;;;36.20;16.50;;;;;;;-3.07;71.69;103772.70;105246;1269;71735;-87
2022/12/19 09:58:35;;;;;;;57.20;24.50;;;;;;;-3.05;72.84;103774.48;105074;1269;69854;-85
2022/12/19 10:01:16;;;;;;;;;;;;;;;-3.06;71.43;103778.87;103642;1270;2333397;-87
2022/12/19 10:04:11;;;;;;;36.20;17.20;;;;;;;-2.96;72.06;103770.52;105460;1259;74331;-88
2022/12/19 10:06:40;;;;;;;38.70;18.40;;;;;;;-3.05;71.74;103769.36;105519;1268;60717;-89
2022/12/19 10:09:34;;;;;;;37.20;18.00;;;;;;;-2.96;71.90;103768.13;105495;1263;59536;-86
2022/12/19 10:13:21;;;;;;;37.70;15.70;;;;;;;-3.08;70.90;103772.49;105506;1270;70650;-86
2022/12/19 10:16:36;;;;;;;36.80;17.00;;;;;;;-3.02;71.71;103774.40;105568;1270;69406;-84
2022/12/19 10:19:09;;;;;;;36.10;15.30;;;;;;;-3.12;71.89;103766.58;106529;1269;67754;-88
2022/12/19 10:22:16;;;;;;;35.60;16.10;;;;;;;-2.98;72.02;103761.73;105847;1266;73008;-88
2022/12/19 10:25:20;;;;;;;32.60;14.30;;;;;;;-3.01;72.17;103763.52;105433;1259;60531;-85
2022/12/19 10:28:17;;;;;;;37.30;17.20;;;;;;;-2.83;72.20;103758.80;105539;1263;59067;-88
2022/12/19 10:31:18;;;;;;;37.30;16.40;;;;;;;-2.78;71.16;103756.94;105480;1273;72691;-87
2022/12/19 10:34:13;;;;;;;37.90;16.60;;;;;;;-2.67;70.26;103751.30;105522;1269;72715;-88
2022/12/19 10:37:19;;;;;;;36.40;17.60;;;;;;;-2.39;71.15;103741.74;106484;1268;68948;-87
2022/12/19 10:40:14;;;;;;;34.80;15.70;;;;;;;-2.32;70.59;103745.02;106413;1272;74094;-85
2022/12/19 10:43:53;;;;;;;35.40;15.10;;;;;;;-2.02;69.26;103744.69;106137;1268;58665;-87
2022/12/19 10:46:33;;;;;;;33.40;15.80;;;;;;;-1.82;68.67;103739.63;105613;1270;60547;-88
2022/12/19 10:49:15;;;;;;;35.30;16.00;;;;;;;-1.87;67.92;103738.95;105612;1270;70335;-86
2022/12/19 10:52:04;;;;;;;35.40;16.00;;;;;;;-1.73;67.99;103735.07;105558;1268;71682;-87
2022/12/19 10:54:36;;;;;;;34.60;16.10;;;;;;;-1.64;68.38;103736.00;105517;1265;70254;-87
2022/12/19 10:57:20;;;;;;;29.60;14.50;;;;;;;-1.79;67.56;103729.79;105319;1265;73693;-88
2022/12/19 11:00:13;;;;;;;38.70;15.50;;;;;;;-1.57;68.66;103723.37;105622;1266;61118;-87
2022/12/19 11:02:53;;;;;;;34.00;17.50;;;;;;;-1.25;67.95;103716.66;105387;1273;59480;-82
2022/12/19 11:05:37;;;;;;;34.60;16.50;;;;;;;-1.09;66.81;103724.55;105309;1270;70728;-85
2022/12/19 11:08:06;;;;;;;35.60;17.40;;;;;;;-1.35;65.53;103725.11;105285;1269;69608;-84
2022/12/19 11:10:37;;;;;;;29.20;13.50;;;;;;;-1.14;66.04;103720.16;105371;1269;70448;-85
2022/12/19 11:13:38;;;;;;;32.50;16.30;;;;;;;-0.71;66.90;103713.14;105393;1263;71072;-86
2022/12/19 11:16:35;;;;;;;30.30;13.70;;;;;;;-0.64;67.43;103719.62;105427;1265;59559;-86
2022/12/19 11:19:37;;;;;;;33.90;15.20;;;;;;;-0.61;65.83;103717.79;105478;1273;59492;-85
2022/12/19 11:22:31;;;;;;;32.00;15.80;;;;;;;-0.28;66.23;103717.49;105214;1270;73183;-86
2022/12/19 11:25:35;;;;;;;37.60;17.00;;;;;;;-0.54;63.41;103714.02;105425;1267;69774;-87
2022/12/19 11:28:36;;;;;;;39.10;18.00;;;;;;;-0.45;63.89;103716.95;105460;1263;68519;-87
2022/12/19 11:31:28;;;;;;;35.10;16.40;;;;;;;-0.42;62.85;103712.72;105403;1269;71835;-86
2022/12/19 11:34:22;;;;;;;35.60;16.30;;;;;;;0.13;63.14;103708.02;105254;1264;61402;-86
2022/12/19 11:37:21;;;;;;;39.90;18.50;;;;;;;0.02;62.29;103712.74;105310;1269;59117;-81
2022/12/19 11:40:29;;;;;;;33.90;16.40;;;;;;;-0.16;62.16;103716.84;105293;1273;72385;-86
2022/12/19 11:43:10;;;;;;;36.40;16.80;;;;;;;-0.46;61.90;103713.67;105355;1277;70315;-86
2022/12/19 11:46:16;;;;;;;38.30;17.30;;;;;;;0.07;63.48;103712.84;105326;1276;70437;-86
2022/12/19 11:49:23;;;;;;;29.30;13.10;;;;;;;0.12;61.02;103713.64;105364;1269;71684;-85
2022/12/19 11:52:05;;;;;;;34.20;17.10;;;;;;;0.07;60.68;103715.08;105322;1273;59576;-86
2022/12/19 11:54:42;;;;;;;32.40;17.00;;;;;;;0.06;61.29;103714.05;105325;1277;60714;-88
2022/12/19 11:57:12;;;;;;;34.60;16.50;;;;;;;0.20;60.41;103715.67;105222;1270;71681;-87
2022/12/19 11:59:41;;;;;;;40.60;19.10;;;;;;;0.02;59.98;103713.95;105301;1270;70226;-86
2022/12/19 12:02:43;;;;;;;37.80;19.10;;;;;;;-0.26;61.88;103709.97;105232;1273;70843;-85
2022/12/19 12:05:47;;;;;;;39.90;18.80;;;;;;;0.08;61.50;103712.54;105233;1277;70966;-86
2022/12/19 12:08:40;;;;;;;35.70;16.20;;;;;;;0.05;60.18;103714.55;105325;1269;60121;-86
2022/12/19 12:11:58;;;;;;;40.00;18.10;;;;;;;0.16;61.33;103718.52;105332;1273;59097;-86